Time;durP1;ratioP1;P1;durP2;ratioP2;P2;SDS_P1;SDS_P2;PMS_P1;PMS_P2;Temp;Humidity;BMP_temperature;BMP_pressure;BME280_temperature;BME280_humidity;BME280_pressure;Samples;Min_cycle;Max_cycle;Signal;HPM_P1;HPM_P2
2021/06/18 00:02:22;;;;;;;;;;;;;;;;;;4902762;29;19922;-82
2021/06/18 00:04:52;;;;;;;;;;;;;;;;;;4904526;29;19923;-81
2021/06/18 00:07:20;;;;;;;;;;;;;;;;;;4935248;29;19923;-84
2021/06/18 00:09:49;;;;;;;;;;;;;;;;;;4921223;29;19923;-84
2021/06/18 00:12:17;;;;;;;;;;;;;;;;;;4916955;29;19923;-80
2021/06/18 00:14:45;;;;;;;;;;;;;;;;;;4928585;29;19923;-82
2021/06/18 00:17:14;;;;;;;;;;;;;;;;;;4933662;29;19933;-81
2021/06/18 00:19:42;;;;;;;;;;;;;;;;;;4936091;29;19922;-86
2021/06/18 00:22:12;;;;;;;;;;;;;;;;;;4900579;29;19923;-82
2021/06/18 00:24:40;;;;;;;;;;;;;;;;;;4939145;29;19922;-81
2021/06/18 00:27:09;;;;;;;;;;;;;;;;;;4914371;29;20290;-80
2021/06/18 00:29:37;;;;;;;;;;;;;;;;;;4900963;29;19923;-81
2021/06/18 00:32:06;;;;;;;;;;;;;;;;;;4935361;29;19942;-82
2021/06/18 00:34:34;;;;;;;;;;;;;;;;;;4898449;29;19923;-83
2021/06/18 00:37:03;;;;;;;;;;;;;;;;;;4916112;29;19922;-82
2021/06/18 00:39:32;;;;;;;;;;;;;;;;;;4915047;29;19923;-79
2021/06/18 00:42:01;;;;;;;;;;;;;;;;;;4933288;29;20304;-83
2021/06/18 00:44:29;;;;;;;;;;;;;;;;;;4932616;29;19923;-80
2021/06/18 00:46:58;;;;;;;;;;;;;;;;;;4903998;29;19922;-80
2021/06/18 00:49:26;;;;;;;;;;;;;;;;;;4920052;29;19923;-79
2021/06/18 00:51:56;;;;;;;;;;;;;;;;;;4907136;29;19922;-83
2021/06/18 00:54:35;;;;;;;;;;;;;;;;;;4920550;29;19930;-84
2021/06/18 00:57:06;;;;;;;;;;;;;;;;;;4905114;29;19922;-81
2021/06/18 00:59:34;;;;;;;;;;;;;;;;;;4924045;29;20400;-80
2021/06/18 01:02:03;;;;;;;;;;;;;;;;;;4922635;29;19923;-86
2021/06/18 01:04:32;;;;;;;;;;;;;;;;;;4935808;29;19927;-81
2021/06/18 01:07:01;;;;;;;;;;;;;;;;;;4917159;29;19923;-83
2021/06/18 01:09:32;;;;;;;;;;;;;;;;;;4914660;29;19931;-85
2021/06/18 01:12:02;;;;;;;;;;;;;;;;;;4926178;29;19922;-81
2021/06/18 01:14:34;;;;;;;;;;;;;;;;;;4934825;29;19930;-80
2021/06/18 01:17:04;;;;;;;;;;;;;;;;;;4924307;29;19933;-82
2021/06/18 01:19:35;;;;;;;;;;;;;;;;;;4939246;29;19930;-86
2021/06/18 01:22:06;;;;;;;;;;;;;;;;;;4917241;29;19927;-81
2021/06/18 01:24:35;;;;;;;;;;;;;;;;;;4916442;29;19923;-80
2021/06/18 01:27:06;;;;;;;;;;;;;;;;;;4902732;29;19926;-82
2021/06/18 01:29:37;;;;;;;;;;;;;;;;;;4919959;29;19930;-84
2021/06/18 01:32:06;;;;;;;;;;;;;;;;;;4907860;29;19927;-85
2021/06/18 01:34:35;;;;;;;;;;;;;;;;;;4914120;29;19923;-82
2021/06/18 01:37:08;;;;;;;;;;;;;;;;;;4939218;29;19923;-82
2021/06/18 01:39:37;;;;;;;;;;;;;;;;;;4906456;29;19945;-83
2021/06/18 01:42:06;;;;;;;;;;;;;;;;;;4936597;29;19929;-86
2021/06/18 01:44:36;;;;;;;;;;;;;;;;;;4937117;29;19931;-85
2021/06/18 01:47:04;;;;;;;;;;;;;;;;;;4921385;29;19927;-86
2021/06/18 01:49:33;;;;;;;;;;;;;;;;;;4904817;29;19934;-81
2021/06/18 01:52:01;;;;;;;;;;;;;;;;;;4922826;29;19930;-86
2021/06/18 01:54:29;;;;;;;;;;;;;;;;;;4921970;29;19929;-81
2021/06/18 01:56:58;;;;;;;;;;;;;;;;;;4923675;29;19930;-80
2021/06/18 01:59:27;;;;;;;;;;;;;;;;;;4916310;29;19938;-82
2021/06/18 02:01:57;;;;;;;;;;;;;;;;;;4918000;29;19930;-82
2021/06/18 02:04:26;;;;;;;;;;;;;;;;;;4908339;29;19938;-84
2021/06/18 02:06:54;;;;;;;;;;;;;;;;;;4934772;29;19922;-82
2021/06/18 02:09:23;;;;;;;;;;;;;;;;;;4934954;29;19929;-80
2021/06/18 02:11:51;;;;;;;;;;;;;;;;;;4906005;29;19930;-83
2021/06/18 02:14:20;;;;;;;;;;;;;;;;;;4919807;29;19933;-84
2021/06/18 02:16:49;;;;;;;;;;;;;;;;;;4923531;29;19946;-80
2021/06/18 02:19:19;;;;;;;;;;;;;;;;;;4920344;29;19927;-85
2021/06/18 02:21:49;;;;;;;;;;;;;;;;;;4938957;29;19937;-86
2021/06/18 02:24:17;;;;;;;;;;;;;;;;;;4919603;29;20595;-81
2021/06/18 02:26:45;;;;;;;;;;;;;;;;;;4917451;29;20388;-81
2021/06/18 02:29:14;;;;;;;;;;;;;;;;;;4934154;29;20420;-86
2021/06/18 02:31:43;;;;;;;;;;;;;;;;;;4935499;29;19923;-83
2021/06/18 02:34:12;;;;;;;;;;;;;;;;;;4919320;29;19930;-83
2021/06/18 02:36:42;;;;;;;;;;;;;;;;;;4920525;29;19922;-85
2021/06/18 02:39:11;;;;;;;;;;;;;;;;;;4901949;29;19938;-82
2021/06/18 02:41:40;;;;;;;;;;;;;;;;;;4901370;29;19926;-82
2021/06/18 02:44:09;;;;;;;;;;;;;;;;;;4913162;29;19934;-84
2021/06/18 02:46:39;;;;;;;;;;;;;;;;;;4919002;29;19930;-79
2021/06/18 02:49:09;;;;;;;;;;;;;;;;;;4914449;29;19927;-81
2021/06/18 02:51:39;;;;;;;;;;;;;;;;;;4900861;29;19922;-80
2021/06/18 02:54:14;;;;;;;;;;;;;;;;;;4908241;29;19923;-80
2021/06/18 02:56:44;;;;;;;;;;;;;;;;;;4925911;29;19950;-80
2021/06/18 02:59:15;;;;;;;;;;;;;;;;;;4918113;29;19923;-80
2021/06/18 03:01:43;;;;;;;;;;;;;;;;;;4938532;29;19922;-85
2021/06/18 03:04:12;;;;;;;;;;;;;;;;;;4930303;29;19930;-83
2021/06/18 03:06:41;;;;;;;;;;;;;;;;;;4938759;28;19930;-84
2021/06/18 03:09:09;;;;;;;;;;;;;;;;;;4904956;29;19927;-85
2021/06/18 03:11:39;;;;;;;;;;;;;;;;;;4900622;29;20353;-85
2021/06/18 03:14:08;;;;;;;;;;;;;;;;;;4918063;29;20002;-81
2021/06/18 03:16:38;;;;;;;;;;;;;;;;;;4934373;29;19923;-80
2021/06/18 03:19:07;;;;;;;;;;;;;;;;;;4916602;29;19926;-81
2021/06/18 03:21:36;;;;;;;;;;;;;;;;;;4935343;29;19938;-82
2021/06/18 03:24:05;;;;;;;;;;;;;;;;;;4917705;29;19926;-81
2021/06/18 03:26:34;;;;;;;;;;;;;;;;;;4925365;29;20209;-88
2021/06/18 03:29:03;;;;;;;;;;;;;;;;;;4914966;29;19957;-84
2021/06/18 03:31:32;;;;;;;;;;;;;;;;;;4918054;29;19929;-84
2021/06/18 03:34:00;;;;;;;;;;;;;;;;;;4933064;29;19922;-82
2021/06/18 03:36:31;;;;;;;;;;;;;;;;;;4920066;29;19933;-84
2021/06/18 03:38:59;;;;;;;;;;;;;;;;;;4920220;29;19931;-83
2021/06/18 03:41:27;;;;;;;;;;;;;;;;;;4923260;29;20282;-83
2021/06/18 03:43:56;;;;;;;;;;;;;;;;;;4918070;29;19927;-81
2021/06/18 03:46:25;;;;;;;;;;;;;;;;;;4921485;29;19930;-86
2021/06/18 03:48:54;;;;;;;;;;;;;;;;;;4899420;29;19938;-81
2021/06/18 03:51:22;;;;;;;;;;;;;;;;;;4938767;29;19930;-81
2021/06/18 03:53:50;;;;;;;;;;;;;;;;;;4900908;29;19931;-83
2021/06/18 03:56:19;;;;;;;;;;;;;;;;;;4900906;29;19931;-85
2021/06/18 03:58:47;;;;;;;;;;;;;;;;;;4923258;29;19922;-86
2021/06/18 04:01:16;;;;;;;;;;;;;;;;;;4938275;29;19937;-89
2021/06/18 04:03:46;;;;;;;;;;;;;;;;;;4936086;28;19931;-86
2021/06/18 04:06:14;;;;;;;;;;;;;;;;;;4936200;29;20158;-86
2021/06/18 04:08:42;;;;;;;;;;;;;;;;;;4959092;28;19907;-86
2021/06/18 04:11:11;;;;;;;;;;;;;;;;;;4939468;28;19930;-88
2021/06/18 04:13:39;;;;;;;;;;;;;;;;;;4942769;29;19919;-86
2021/06/18 04:16:08;;;;;;;;;;;;;;;;;;4920835;28;19917;-87
2021/06/18 04:18:38;;;;;;;;;;;;;;;;;;4939133;29;19913;-87
2021/06/18 04:21:09;;;;;;;;;;;;;;;;;;4936649;29;19907;-88
2021/06/18 04:23:37;;;;;;;;;;;;;;;;;;4918064;29;19907;-88
2021/06/18 04:26:06;;;;;;;;;;;;;;;;;;4944460;28;19911;-87
2021/06/18 04:28:35;;;;;;;;;;;;;;;;;;4956730;28;19910;-87
2021/06/18 04:31:04;;;;;;;;;;;;;;;;;;4958645;28;19925;-87
2021/06/18 04:33:32;;;;;;;;;;;;;;;;;;4934732;28;19918;-85
2021/06/18 04:36:00;;;;;;;;;;;;;;;;;;4933928;29;19923;-84
2021/06/18 04:38:30;;;;;;;;;;;;;;;;;;4918788;29;19907;-87
2021/06/18 04:40:59;;;;;;;;;;;;;;;;;;4952745;28;19911;-87
2021/06/18 04:43:27;;;;;;;;;;;;;;;;;;4922385;28;19933;-87
2021/06/18 04:45:56;;;;;;;;;;;;;;;;;;4956532;28;19907;-86
2021/06/18 04:48:27;;;;;;;;;;;;;;;;;;4948344;28;20170;-88
2021/06/18 04:50:55;;;;;;;;;;;;;;;;;;4940560;28;19914;-88
2021/06/18 04:53:24;;;;;;;;;;;;;;;;;;4940208;28;19907;-87
2021/06/18 04:55:54;;;;;;;;;;;;;;;;;;4940208;29;19913;-88
2021/06/18 04:58:23;;;;;;;;;;;;;;;;;;4926403;28;19911;-88
2021/06/18 05:00:52;;;;;;;;;;;;;;;;;;4937646;28;19937;-86
2021/06/18 05:03:21;;;;;;;;;;;;;;;;;;4940439;28;19910;-87
2021/06/18 05:05:49;;;;;;;;;;;;;;;;;;4923306;28;19917;-86
2021/06/18 05:08:18;;;;;;;;;;;;;;;;;;4955372;29;19913;-88
2021/06/18 05:10:46;;;;;;;;;;;;;;;;;;4941174;29;19913;-87
2021/06/18 05:13:16;;;;;;;;;;;;;;;;;;4925617;29;19917;-87
2021/06/18 05:15:45;;;;;;;;;;;;;;;;;;4931151;29;19929;-86
2021/06/18 05:18:13;;;;;;;;;;;;;;;;;;4941539;29;19911;-87
2021/06/18 05:20:42;;;;;;;;;;;;;;;;;;4922685;29;19934;-87
2021/06/18 05:23:11;;;;;;;;;;;;;;;;;;4938266;29;19913;-87
2021/06/18 05:25:39;;;;;;;;;;;;;;;;;;4956464;28;19921;-86
2021/06/18 05:28:08;;;;;;;;;;;;;;;;;;4924218;29;19915;-87
2021/06/18 05:30:38;;;;;;;;;;;;;;;;;;4943914;28;19911;-88
2021/06/18 05:33:06;;;;;;;;;;;;;;;;;;4946350;28;19918;-87
2021/06/18 05:35:35;;;;;;;;;;;;;;;;;;4940845;29;19933;-86
2021/06/18 05:38:03;;;;;;;;;;;;;;;;;;4943506;28;19920;-87
2021/06/18 05:40:32;;;;;;;;;;;;;;;;;;4941364;28;19914;-86
2021/06/18 05:43:01;;;;;;;;;;;;;;;;;;4941441;29;19922;-87
2021/06/18 05:45:33;;;;;;;;;;;;;;;;;;4943485;29;20018;-86
2021/06/18 05:48:03;;;;;;;;;;;;;;;;;;4960385;28;19926;-86
2021/06/18 05:50:31;;;;;;;;;;;;;;;;;;4942297;29;19921;-86
2021/06/18 05:52:59;;;;;;;;;;;;;;;;;;4945746;29;19913;-87
2021/06/18 05:55:28;;;;;;;;;;;;;;;;;;4931229;29;19917;-86
2021/06/18 05:57:57;;;;;;;;;;;;;;;;;;4943573;28;19930;-86
2021/06/18 06:00:26;;;;;;;;;;;;;;;;;;4934727;29;19918;-87
2021/06/18 06:03:10;;;;;;;;;;;;;;;;;;4936244;29;20297;-85
2021/06/18 06:05:39;;;;;;;;;;;;;;;;;;4919086;29;20345;-85
2021/06/18 06:08:12;;;;;;;;;;;;;;;;;;4902903;29;19923;-85
2021/06/18 06:10:45;;;;;;;;;;;;;;;;;;4918962;29;19949;-83
2021/06/18 06:13:14;;;;;;;;;;;;;;;;;;4921637;29;19927;-85
2021/06/18 06:15:43;;;;;;;;;;;;;;;;;;4909983;29;20397;-84
2021/06/18 06:18:13;;;;;;;;;;;;;;;;;;4914098;29;19922;-86
2021/06/18 06:20:41;;;;;;;;;;;;;;;;;;4938712;29;19927;-85
2021/06/18 06:23:10;;;;;;;;;;;;;;;;;;4906911;29;20305;-84
2021/06/18 06:25:40;;;;;;;;;;;;;;;;;;4914601;29;20300;-86
2021/06/18 06:28:09;;;;;;;;;;;;;;;;;;4918369;29;19930;-85
2021/06/18 06:30:37;;;;;;;;;;;;;;;;;;4920418;29;19926;-85
2021/06/18 06:33:06;;;;;;;;;;;;;;;;;;4915601;29;19922;-84
2021/06/18 06:35:36;;;;;;;;;;;;;;;;;;4898650;29;19923;-84
2021/06/18 06:38:05;;;;;;;;;;;;;;;;;;4918388;29;19923;-86
2021/06/18 06:40:34;;;;;;;;;;;;;;;;;;4935982;29;20378;-83
2021/06/18 06:43:02;;;;;;;;;;;;;;;;;;4919735;29;20324;-83
2021/06/18 06:45:31;;;;;;;;;;;;;;;;;;4903584;29;19930;-82
2021/06/18 06:48:00;;;;;;;;;;;;;;;;;;4918086;29;20425;-83
2021/06/18 06:50:29;;;;;;;;;;;;;;;;;;4904453;29;20377;-83
2021/06/18 06:52:59;;;;;;;;;;;;;;;;;;4936301;29;19930;-85
2021/06/18 06:55:27;;;;;;;;;;;;;;;;;;4919429;29;20020;-84
2021/06/18 06:57:56;;;;;;;;;;;;;;;;;;4924221;29;19923;-82
2021/06/18 07:00:24;;;;;;;;;;;;;;;;;;4904287;29;19933;-85
2021/06/18 07:02:53;;;;;;;;;;;;;;;;;;4905027;29;19923;-82
2021/06/18 07:05:22;;;;;;;;;;;;;;;;;;4921196;29;19945;-83
2021/06/18 07:07:51;;;;;;;;;;;;;;;;;;4936788;29;19923;-85
2021/06/18 07:10:20;;;;;;;;;;;;;;;;;;4920740;29;19930;-84
2021/06/18 07:12:49;;;;;;;;;;;;;;;;;;4930007;29;21287;-84
2021/06/18 07:15:17;;;;;;;;;;;;;;;;;;4934662;29;19930;-85
2021/06/18 07:18:01;;;;;;;;;;;;;;;;;;4918259;29;19930;-86
2021/06/18 07:24:59;;;;;;;;;;;;;;;;;;4900463;29;20613;-85
2021/06/18 07:28:13;;;;;;;;;;;;;;;;;;4928318;29;20396;-85
2021/06/18 07:30:42;;;;;;;;;;;;;;;;;;4894749;29;19922;-83
2021/06/18 07:57:26;;;;;;;;;;;;;;;;;;4841828;29;19923;-85
2021/06/18 08:13:32;;;;;;;;;;;;;;;;;;4892561;29;19923;-85
2021/06/18 08:17:45;;;;;;;;;;;;;;;;;;4901136;29;20333;-85
2021/06/18 08:22:04;;;;;;;;;;;;;;;;;;;;;
2021/06/18 08:30:34;;;;;;;;;;;;;;;;;;4933371;29;19930;-85
2021/06/18 08:33:24;;;;;;;;;;;;;;;;;;4921772;28;19929;-86
2021/06/18 08:39:36;;;;;;;;;;;;;;;;;;4907920;29;19933;-85
2021/06/18 08:42:26;;;;;;;;;;;;;;;;;;4904956;29;20312;-85
2021/06/18 08:56:48;;;;;;;;;;;;;;;;;;4914094;28;20152;-86
2021/06/18 09:03:37;;;;;;;;;;;;;;;;;;4946381;28;19922;-83
2021/06/18 09:06:28;;;;;;;;;;;;;;;;;;4950479;28;19906;-85
2021/06/18 09:09:13;;;;;;;;;;;;;;;;;;4933056;28;19923;-84
2021/06/18 09:11:54;;;;;;;;;;;;;;;;;;4921192;29;20407;-83
2021/06/18 09:14:28;;;;;;;;;;;;;;;;;;4938232;28;19937;-83
2021/06/18 09:17:04;;;;;;;;;;;;;;;;;;4918396;29;19923;-84
2021/06/18 09:19:35;;;;;;;;;;;;;;;;;;4936413;28;19922;-84
2021/06/18 09:22:04;;;;;;;;;;;;;;;;;;4939262;28;19922;-83
2021/06/18 09:24:37;;;;;;;;;;;;;;;;;;4950146;28;20190;-84
2021/06/18 09:27:08;;;;;;;;;;;;;;;;;;4921679;28;19929;-84
2021/06/18 09:29:38;;;;;;;;;;;;;;;;;;4922373;29;20308;-82
2021/06/18 09:32:07;;;;;;;;;;;;;;;;;;4923250;28;20420;-82
2021/06/18 09:34:40;;;;;;;;;;;;;;;;;;4921174;29;19922;-83
2021/06/18 09:37:38;;;;;;;;;;;;;;;;;;4938050;28;19949;-83
2021/06/18 09:40:07;;;;;;;;;;;;;;;;;;4914672;28;19933;-82
2021/06/18 09:42:37;;;;;;;;;;;;;;;;;;4930444;28;19931;-83
2021/06/18 09:45:07;;;;;;;;;;;;;;;;;;4937496;28;19923;-83
2021/06/18 09:47:36;;;;;;;;;;;;;;;;;;4916532;29;19931;-83
2021/06/18 09:50:20;;;;;;;;;;;;;;;;;;4925056;28;20393;-82
2021/06/18 09:52:49;;;;;;;;;;;;;;;;;;4943722;29;19922;-81
2021/06/18 09:55:22;;;;;;;;;;;;;;;;;;4938533;28;19922;-82
2021/06/18 09:57:54;;;;;;;;;;;;;;;;;;4925425;29;20369;-82
2021/06/18 10:00:25;;;;;;;;;;;;;;;;;;4939739;28;19922;-81
2021/06/18 10:03:01;;;;;;;;;;;;;;;;;;4921311;29;19929;-81
2021/06/18 10:05:39;;;;;;;;;;;;;;;;;;4941490;28;19922;-81
2021/06/18 10:08:23;;;;;;;;;;;;;;;;;;4940755;28;20380;-82
2021/06/18 10:10:52;;;;;;;;;;;;;;;;;;4929586;29;20296;-82
2021/06/18 10:13:20;;;;;;;;;;;;;;;;;;4941032;28;19926;-82
2021/06/18 10:15:49;;;;;;;;;;;;;;;;;;4935100;29;20397;-82
2021/06/18 10:18:17;;;;;;;;;;;;;;;;;;4914182;28;20270;-82
2021/06/18 10:20:47;;;;;;;;;;;;;;;;;;4905415;28;19929;-82
2021/06/18 10:23:16;;;;;;;;;;;;;;;;;;4926450;28;20297;-81
2021/06/18 10:25:46;;;;;;;;;;;;;;;;;;4923586;28;19929;-83
2021/06/18 10:28:18;;;;;;;;;;;;;;;;;;4925924;28;19931;-81
2021/06/18 10:30:47;;;;;;;;;;;;;;;;;;4930751;28;20198;-81
2021/06/18 10:33:32;;;;;;;;;;;;;;;;;;4912037;28;19927;-81
2021/06/18 10:36:04;;;;;;;;;;;;;;;;;;4936681;28;20120;-81
2021/06/18 10:38:43;;;;;;;;;;;;;;;;;;4940723;29;20600;-81
2021/06/18 10:41:23;;;;;;;;;;;;;;;;;;4939025;28;19922;-81
2021/06/18 10:43:55;;;;;;;;;;;;;;;;;;4920410;28;19934;-84
2021/06/18 10:46:28;;;;;;;;;;;;;;;;;;4919737;29;19923;-83
2021/06/18 10:49:01;;;;;;;;;;;;;;;;;;4926510;29;19922;-83
2021/06/18 10:51:32;;;;;;;;;;;;;;;;;;4930765;29;19922;-83
2021/06/18 10:54:03;;;;;;;;;;;;;;;;;;4926750;29;19926;-83
2021/06/18 10:56:50;;;;;;;;;;;;;;;;;;4921594;28;19934;-83
2021/06/18 10:59:20;;;;;;;;;;;;;;;;;;4955722;28;19934;-83
2021/06/18 11:01:49;;;;;;;;;;;;;;;;;;4935644;29;20293;-83
2021/06/18 11:04:25;;;;;;;;;;;;;;;;;;4924760;28;19934;-83
2021/06/18 11:06:55;;;;;;;;;;;;;;;;;;4930107;29;19933;-83
2021/06/18 11:09:41;;;;;;;;;;;;;;;;;;4917619;28;19934;-83
2021/06/18 11:12:25;;;;;;;;;;;;;;;;;;4921348;28;19930;-83
2021/06/18 11:14:54;;;;;;;;;;;;;;;;;;4929398;29;19923;-83
2021/06/18 11:17:37;;;;;;;;;;;;;;;;;;4944646;28;19926;-83
2021/06/18 11:20:06;;;;;;;;;;;;;;;;;;4927159;28;19926;-83
2021/06/18 11:22:37;;;;;;;;;;;;;;;;;;4917849;28;20396;-83
2021/06/18 11:25:06;;;;;;;;;;;;;;;;;;4932755;28;19927;-83
2021/06/18 11:27:34;;;;;;;;;;;;;;;;;;4923497;29;19922;-83
2021/06/18 11:30:22;;;;;;;;;;;;;;;;;;4919501;28;19929;-82
2021/06/18 11:32:51;;;;;;;;;;;;;;;;;;4938182;29;19941;-82
2021/06/18 11:35:38;;;;;;;;;;;;;;;;;;4946542;28;19930;-82
2021/06/18 11:38:11;;;;;;;;;;;;;;;;;;4916639;28;19922;-82
2021/06/18 11:40:40;;;;;;;;;;;;;;;;;;4941030;28;19944;-82
2021/06/18 11:43:08;;;;;;;;;;;;;;;;;;4934316;28;19926;-82
2021/06/18 11:45:41;;;;;;;;;;;;;;;;;;4932895;29;19945;-81
2021/06/18 11:48:13;;;;;;;;;;;;;;;;;;4953420;28;19922;-81
2021/06/18 11:50:42;;;;;;;;;;;;;;;;;;4922296;29;19929;-81
2021/06/18 11:53:12;;;;;;;;;;;;;;;;;;4919262;28;19923;-82
2021/06/18 11:55:41;;;;;;;;;;;;;;;;;;4919348;28;19929;-84
2021/06/18 11:58:24;;;;;;;;;;;;;;;;;;4918203;28;19929;-82
2021/06/18 12:00:52;;;;;;;;;;;;;;;;;;4932231;29;19934;-81
2021/06/18 12:03:29;;;;;;;;;;;;;;;;;;4934694;28;20385;-81
2021/06/18 12:05:58;;;;;;;;;;;;;;;;;;4948970;28;20269;-81
2021/06/18 12:08:27;;;;;;;;;;;;;;;;;;4953737;28;20494;-81
2021/06/18 12:10:56;;;;;;;;;;;;;;;;;;4933790;28;20292;-82
2021/06/18 12:13:24;;;;;;;;;;;;;;;;;;4943958;28;19930;-83
2021/06/18 12:15:54;;;;;;;;;;;;;;;;;;4914473;29;19922;-83
2021/06/18 12:18:24;;;;;;;;;;;;;;;;;;4938577;28;20388;-81
2021/06/18 12:20:53;;;;;;;;;;;;;;;;;;4906559;28;20986;-80
2021/06/18 12:23:22;;;;;;;;;;;;;;;;;;4927828;28;20423;-81
2021/06/18 12:25:53;;;;;;;;;;;;;;;;;;4946617;28;19918;-82
2021/06/18 12:28:21;;;;;;;;;;;;;;;;;;4955547;28;19929;-83
2021/06/18 12:30:50;;;;;;;;;;;;;;;;;;4980879;28;19913;-81
2021/06/18 12:33:19;;;;;;;;;;;;;;;;;;4941503;28;19926;-81
2021/06/18 12:35:47;;;;;;;;;;;;;;;;;;4915426;29;19934;-83
2021/06/18 12:38:18;;;;;;;;;;;;;;;;;;4954808;28;20190;-81
2021/06/18 12:40:47;;;;;;;;;;;;;;;;;;4958424;28;19929;-81
2021/06/18 12:43:17;;;;;;;;;;;;;;;;;;4930157;28;19930;-80
2021/06/18 12:45:49;;;;;;;;;;;;;;;;;;4924035;29;20292;-80
2021/06/18 12:48:18;;;;;;;;;;;;;;;;;;4921817;28;19934;-81
2021/06/18 12:50:48;;;;;;;;;;;;;;;;;;4953365;28;20288;-80
2021/06/18 12:53:17;;;;;;;;;;;;;;;;;;4918259;28;19922;-81
2021/06/18 12:55:46;;;;;;;;;;;;;;;;;;4922596;28;19922;-82
2021/06/18 12:58:15;;;;;;;;;;;;;;;;;;4937235;28;19922;-81
2021/06/18 13:00:49;;;;;;;;;;;;;;;;;;4958865;28;20408;-80
2021/06/18 13:03:36;;;;;;;;;;;;;;;;;;4956649;28;19929;-80
2021/06/18 13:06:05;;;;;;;;;;;;;;;;;;4923136;28;20407;-82
2021/06/18 13:08:34;;;;;;;;;;;;;;;;;;4936008;29;19930;-81
2021/06/18 13:11:02;;;;;;;;;;;;;;;;;;4932152;28;19930;-82
2021/06/18 13:13:31;;;;;;;;;;;;;;;;;;4947311;28;19930;-79
2021/06/18 13:16:12;;;;;;;;;;;;;;;;;;4933448;28;19923;-80
2021/06/18 13:18:50;;;;;;;;;;;;;;;;;;4947233;28;19930;-81
2021/06/18 13:21:18;;;;;;;;;;;;;;;;;;4945568;28;19922;-80
2021/06/18 13:23:47;;;;;;;;;;;;;;;;;;4935951;29;19923;-81
2021/06/18 13:26:15;;;;;;;;;;;;;;;;;;4930508;28;19922;-81
2021/06/18 13:28:45;;;;;;;;;;;;;;;;;;4917632;29;19930;-80
2021/06/18 13:31:17;;;;;;;;;;;;;;;;;;4918471;28;19922;-81
2021/06/18 13:33:46;;;;;;;;;;;;;;;;;;4950808;28;19923;-80
2021/06/18 13:36:23;;;;;;;;;;;;;;;;;;4941267;28;19934;-81
2021/06/18 13:38:51;;;;;;;;;;;;;;;;;;4934696;29;19922;-82
2021/06/18 13:41:19;;;;;;;;;;;;;;;;;;4959920;28;19929;-81
2021/06/18 13:43:49;;;;;;;;;;;;;;;;;;4920631;28;20388;-81
2021/06/18 13:46:19;;;;;;;;;;;;;;;;;;4916144;28;19923;-81
2021/06/18 13:48:48;;;;;;;;;;;;;;;;;;4942093;28;19934;-80
2021/06/18 13:51:17;;;;;;;;;;;;;;;;;;4934346;28;19930;-80
2021/06/18 13:53:45;;;;;;;;;;;;;;;;;;4935060;29;19926;-80
2021/06/18 13:56:13;;;;;;;;;;;;;;;;;;4920748;28;19922;-80
2021/06/18 13:58:42;;;;;;;;;;;;;;;;;;4954612;28;19926;-81
2021/06/18 14:01:10;;;;;;;;;;;;;;;;;;4934032;28;20367;-80
2021/06/18 14:03:40;;;;;;;;;;;;;;;;;;4924856;28;19922;-80
2021/06/18 14:06:09;;;;;;;;;;;;;;;;;;4926859;28;20412;-80
2021/06/18 14:08:37;;;;;;;;;;;;;;;;;;4938473;28;19922;-80
2021/06/18 14:11:08;;;;;;;;;;;;;;;;;;4943882;28;19933;-80
2021/06/18 14:13:36;;;;;;;;;;;;;;;;;;4912537;29;19923;-81
2021/06/18 14:16:05;;;;;;;;;;;;;;;;;;4957129;28;20301;-82
2021/06/18 14:18:33;;;;;;;;;;;;;;;;;;4919793;29;19922;-80
2021/06/18 14:21:03;;;;;;;;;;;;;;;;;;4935637;28;19926;-80
2021/06/18 14:23:31;;;;;;;;;;;;;;;;;;4839118;28;78101;-81
2021/06/18 14:26:56;;;;;;;;;;;;;;;;;;5130042;27;19923;-80
2021/06/18 14:29:24;;;;;;;;;;;;;;;;;;5095397;28;19948;-80
2021/06/18 14:31:54;;;;;;;;;;;;;;;;;;5092751;28;20562;-80
2021/06/18 14:34:22;;;;;;;;;;;;;;;;;;5095181;28;19935;-80
2021/06/18 14:36:51;;;;;;;;;;;;;;;;;;5083653;28;19928;-81
2021/06/18 14:39:19;;;;;;;;;;;;;;;;;;5083729;28;20133;-79
2021/06/18 14:41:48;;;;;;;;;;;;;;;;;;5087733;28;19928;-80
2021/06/18 14:44:18;;;;;;;;;;;;;;;;;;5099301;28;20390;-80
2021/06/18 14:46:46;;;;;;;;;;;;;;;;;;5096481;28;19935;-81
2021/06/18 14:49:14;;;;;;;;;;;;;;;;;;5095462;28;20306;-81
2021/06/18 14:51:44;;;;;;;;;;;;;;;;;;5095837;28;19935;-80
2021/06/18 14:54:13;;;;;;;;;;;;;;;;;;5074201;28;19924;-80
2021/06/18 14:56:44;;;;;;;;;;;;;;;;;;5079736;28;19932;-81
2021/06/18 14:59:12;;;;;;;;;;;;;;;;;;5097193;28;19947;-80
2021/06/18 15:01:42;;;;;;;;;;;;;;;;;;5088002;28;19924;-81
2021/06/18 15:04:10;;;;;;;;;;;;;;;;;;5082077;28;20325;-80
2021/06/18 15:06:38;;;;;;;;;;;;;;;;;;5075510;28;20444;-82
2021/06/18 15:09:07;;;;;;;;;;;;;;;;;;5089868;28;20278;-81
2021/06/18 15:11:35;;;;;;;;;;;;;;;;;;5101167;28;19925;-80
2021/06/18 15:14:04;;;;;;;;;;;;;;;;;;5109743;28;19908;-85
2021/06/18 15:16:32;;;;;;;;;;;;;;;;;;5113220;28;19924;-82
2021/06/18 15:19:02;;;;;;;;;;;;;;;;;;5116807;28;19920;-82
2021/06/18 15:21:30;;;;;;;;;;;;;;;;;;5115043;28;19924;-83
2021/06/18 15:23:58;;;;;;;;;;;;;;;;;;5113569;28;20678;-81
2021/06/18 15:26:27;;;;;;;;;;;;;;;;;;5112260;28;19924;-80
2021/06/18 15:28:56;;;;;;;;;;;;;;;;;;5085823;28;19955;-81
2021/06/18 15:31:25;;;;;;;;;;;;;;;;;;5089134;28;20298;-81
2021/06/18 15:33:53;;;;;;;;;;;;;;;;;;5089994;28;19924;-80
2021/06/18 15:36:23;;;;;;;;;;;;;;;;;;5100972;28;20293;-80
2021/06/18 15:38:51;;;;;;;;;;;;;;;;;;5072691;28;19924;-81
2021/06/18 15:41:19;;;;;;;;;;;;;;;;;;5078317;28;19932;-80
2021/06/18 15:43:48;;;;;;;;;;;;;;;;;;5073586;28;19932;-82
2021/06/18 15:46:16;;;;;;;;;;;;;;;;;;5075831;28;20029;-80
2021/06/18 15:48:44;;;;;;;;;;;;;;;;;;5078126;28;19941;-81
2021/06/18 15:51:16;;;;;;;;;;;;;;;;;;5075001;28;20301;-82
2021/06/18 15:53:46;;;;;;;;;;;;;;;;;;5077739;28;19927;-80
2021/06/18 15:56:15;;;;;;;;;;;;;;;;;;5060912;28;19924;-80
2021/06/18 15:58:44;;;;;;;;;;;;;;;;;;5076503;28;19932;-80
2021/06/18 16:01:12;;;;;;;;;;;;;;;;;;5077721;28;20283;-81
2021/06/18 16:03:40;;;;;;;;;;;;;;;;;;5075239;28;19928;-80
2021/06/18 16:06:08;;;;;;;;;;;;;;;;;;5081286;28;19925;-82
2021/06/18 16:08:37;;;;;;;;;;;;;;;;;;5073848;28;19924;-80
2021/06/18 16:11:06;;;;;;;;;;;;;;;;;;5078211;28;19925;-81
2021/06/18 16:13:35;;;;;;;;;;;;;;;;;;5074131;28;19959;-80
2021/06/18 16:16:04;;;;;;;;;;;;;;;;;;5074330;28;19924;-79
2021/06/18 16:18:33;;;;;;;;;;;;;;;;;;5072565;28;19925;-79
2021/06/18 16:21:01;;;;;;;;;;;;;;;;;;5069298;28;19932;-80
2021/06/18 16:23:29;;;;;;;;;;;;;;;;;;5061940;28;19947;-81
2021/06/18 16:25:58;;;;;;;;;;;;;;;;;;5074703;28;20283;-81
2021/06/18 16:28:28;;;;;;;;;;;;;;;;;;5088541;28;19942;-82
2021/06/18 16:30:56;;;;;;;;;;;;;;;;;;5103961;28;19934;-84
2021/06/18 16:33:24;;;;;;;;;;;;;;;;;;5096200;28;19931;-81
2021/06/18 16:35:53;;;;;;;;;;;;;;;;;;5072009;28;19932;-80
2021/06/18 16:38:21;;;;;;;;;;;;;;;;;;5077827;28;19924;-82
2021/06/18 16:40:49;;;;;;;;;;;;;;;;;;5081042;28;19924;-81
2021/06/18 16:43:18;;;;;;;;;;;;;;;;;;5062278;28;20748;-80
2021/06/18 16:45:47;;;;;;;;;;;;;;;;;;5076209;28;19924;-80
2021/06/18 16:48:16;;;;;;;;;;;;;;;;;;5075978;28;20050;-80
2021/06/18 16:50:45;;;;;;;;;;;;;;;;;;5079515;28;19939;-80
2021/06/18 16:53:14;;;;;;;;;;;;;;;;;;5060951;28;19931;-81
2021/06/18 16:55:42;;;;;;;;;;;;;;;;;;5080708;28;20294;-80
2021/06/18 16:58:10;;;;;;;;;;;;;;;;;;5064427;28;20362;-80
2021/06/18 17:00:39;;;;;;;;;;;;;;;;;;5061233;28;20314;-81
2021/06/18 17:03:08;;;;;;;;;;;;;;;;;;5073903;28;20166;-80
2021/06/18 17:05:36;;;;;;;;;;;;;;;;;;5075133;28;19924;-79
2021/06/18 17:08:05;;;;;;;;;;;;;;;;;;5076755;28;19929;-82
2021/06/18 17:10:34;;;;;;;;;;;;;;;;;;5062681;28;19925;-80
2021/06/18 17:13:30;;;;;;;;;;;;;;;;;;5078160;28;20586;-80
2021/06/18 17:16:00;;;;;;;;;;;;;;;;;;5059817;28;19935;-80
2021/06/18 17:18:31;;;;;;;;;;;;;;;;;;5063588;28;19928;-80
2021/06/18 17:20:59;;;;;;;;;;;;;;;;;;5079433;28;19932;-80
2021/06/18 17:23:27;;;;;;;;;;;;;;;;;;5063065;28;19929;-79
2021/06/18 17:25:56;;;;;;;;;;;;;;;;;;5072669;28;19931;-80
2021/06/18 17:28:24;;;;;;;;;;;;;;;;;;5075667;28;20417;-81
2021/06/18 17:30:57;;;;;;;;;;;;;;;;;;5070355;28;19935;-79
2021/06/18 17:33:26;;;;;;;;;;;;;;;;;;5072532;28;19924;-79
2021/06/18 17:35:56;;;;;;;;;;;;;;;;;;5073700;28;20404;-79
2021/06/18 17:38:25;;;;;;;;;;;;;;;;;;5071374;28;20194;-80
2021/06/18 17:40:53;;;;;;;;;;;;;;;;;;5088778;28;19928;-79
2021/06/18 17:43:22;;;;;;;;;;;;;;;;;;5076899;28;20309;-79
2021/06/18 17:45:50;;;;;;;;;;;;;;;;;;5076554;28;19940;-81
2021/06/18 17:48:19;;;;;;;;;;;;;;;;;;5070143;28;20306;-80
2021/06/18 17:50:51;;;;;;;;;;;;;;;;;;5074338;28;19931;-79
2021/06/18 17:53:22;;;;;;;;;;;;;;;;;;5070953;28;19931;-79
2021/06/18 17:55:50;;;;;;;;;;;;;;;;;;5081447;28;20409;-81
2021/06/18 17:58:19;;;;;;;;;;;;;;;;;;5078691;28;19958;-81
2021/06/18 18:00:48;;;;;;;;;;;;;;;;;;5066170;28;20297;-82
2021/06/18 18:03:16;;;;;;;;;;;;;;;;;;5071354;28;19924;-82
2021/06/18 18:05:44;;;;;;;;;;;;;;;;;;5081005;28;20298;-81
2021/06/18 18:08:14;;;;;;;;;;;;;;;;;;5067516;28;19925;-80
2021/06/18 18:10:44;;;;;;;;;;;;;;;;;;5077549;28;19932;-81
2021/06/18 18:13:13;;;;;;;;;;;;;;;;;;5071002;28;19924;-82
2021/06/18 18:15:42;;;;;;;;;;;;;;;;;;5079776;28;19990;-80
2021/06/18 18:18:10;;;;;;;;;;;;;;;;;;5086131;28;19924;-82
2021/06/18 18:20:39;;;;;;;;;;;;;;;;;;5081206;28;20314;-80